Latest Coastal Weather Observations for Cape Flattery

IDQ60701

Issued at 5:02 pm EST Monday 26 September 2016 (issued every 10 minutes, with the page automatically refreshed every 10 minutes)

About coastal observations | Map of coastal stations | Coastal observations for QLD | Marine services | Other Formats
Station Details ID: 031213 Name: CAPE FLATTERY Lat: -14.97 Lon: 145.31 Height: 18.5 m
Data from the previous 72 hours. | See also: Recent months at Cape Flattery
Date/Time
EST
Temp
°C
Wind Pressure Rain since
9am
mm
Weather Cloud Vis
km
Sea
Height
m
Swell
Dir  Spd
kts
Gust
kts
hPa Trend Height
m
Period
s
Dir
26/05:00pm 27.5 SE 11 14 1010.6 - 0.0 - - - - - - -
26/04:30pm 28.3 SE 11 15 1010.3 - 0.0 - - - - - - -
26/04:00pm 28.9 SE 10 14 1010.2 - 0.0 - - - - - - -
26/03:30pm 28.7 SE 11 15 1010.3 - 0.0 - - - - - - -
26/03:00pm 29.3 SE 12 16 1010.4 - 0.0 - - - - - - -
26/02:30pm 29.3 SE 12 16 1010.4 - 0.0 - - - - - - -
26/02:00pm 30.2 SE 11 17 1010.6 - 0.0 - - - - - - -
26/01:30pm 29.7 SE 13 16 1010.8 - 0.0 - - - - - - -
26/01:00pm 29.5 SE 12 16 1011.2 - 0.0 - - - - - - -
26/12:30pm 29.1 SE 12 18 1011.6 - 0.0 - - - - - - -
26/12:00pm 29.3 SSE 12 17 1012.1 - 0.0 - - - - - - -
26/11:30am 29.1 SE 11 17 1012.5 - 0.0 - - - - - - -
26/11:00am 29.2 SE 12 15 1013.0 - 0.0 - - - - - - -
26/10:30am 29.8 SE 11 16 1013.1 - 0.0 - - - - - - -
26/10:00am 28.3 SE 10 15 1013.2 - 0.0 - - - - - - -
26/09:30am 28.8 SE 9 13 1013.2 - 0.0 - - - - - - -
26/09:00am 27.9 SSE 9 13 1013.3 - 0.0 - - - - - - -
26/08:30am 27.6 SE 8 11 1013.3 - 0.0 - - - - - - -
26/08:00am 26.8 SE 9 11 1012.9 - 0.0 - - - - - - -
26/07:30am 25.7 ESE 6 8 1012.5 - 0.0 - - - - - - -
26/07:00am 24.7 ESE 3 4 1012.1 - 0.0 - - - - - - -
26/06:30am 22.1 ESE 3 4 1011.7 - 0.0 - - - - - - -
26/06:00am 22.3 E 3 4 1011.2 - 0.0 - - - - - - -
26/05:30am 22.5 E 3 4 1011.0 - 0.0 - - - - - - -
26/05:00am 22.4 E 3 4 1010.6 - 0.0 - - - - - - -
26/04:30am 23.4 E 4 5 1010.4 - 0.0 - - - - - - -
26/04:00am 23.2 E 5 6 1010.3 - 0.0 - - - - - - -
26/03:30am 23.0 E 5 5 1010.4 - 0.0 - - - - - - -
26/03:00am 23.6 E 5 6 1010.5 - 0.0 - - - - - - -
26/02:30am 23.2 E 5 6 1010.6 - 0.0 - - - - - - -
26/02:00am 23.0 E 5 5 1010.8 - 0.0 - - - - - - -
26/01:30am 23.7 E 5 5 1010.9 - 0.0 - - - - - - -
26/01:00am 23.5 E 5 6 1011.2 - 0.0 - - - - - - -
26/12:30am 23.4 E 4 5 1011.3 - 0.0 - - - - - - -
26/12:00am 23.5 E 4 4 1011.6 - 0.0 - - - - - - -
 
Date/Time
EST
Temp
°C
Wind Pressure Rain since
9am
mm
Weather Cloud Vis
km
Sea
Height
m
Swell
Dir  Spd
kts
Gust
kts
hPa Trend Height
m
Period
s
Dir
25/11:30pm 24.1 ENE 4 4 1011.8 - 0.0 - - - - - - -
25/11:00pm 24.1 ENE 4 5 1011.9 - 0.0 - - - - - - -
25/10:30pm 24.3 ENE 4 4 1012.0 - 0.0 - - - - - - -
25/10:00pm 24.5 ENE 4 5 1012.1 - 0.0 - - - - - - -
25/09:30pm 24.6 ENE 4 5 1012.0 - 0.0 - - - - - - -
25/09:00pm 24.4 NE 3 5 1011.9 - 0.0 - - - - - - -
25/08:30pm 24.1 E 4 6 1011.4 - 0.0 - - - - - - -
25/08:00pm 24.1 ENE 3 4 1011.2 - 0.0 - - - - - - -
25/07:30pm 24.7 ENE 3 4 1010.8 - 0.0 - - - - - - -
25/07:00pm 24.9 E 3 4 1010.6 - 0.0 - - - - - - -
25/06:30pm 25.6 ENE 5 6 1010.1 - 0.0 - - - - - - -
25/06:00pm 26.6 E 4 6 1010.0 - 0.0 - - - - - - -
25/05:30pm 26.9 NE 7 11 1009.5 - 0.0 - - - - - - -
25/05:00pm 27.9 NE 8 11 1009.2 - 0.0 - - - - - - -
25/04:30pm 28.3 NE 8 12 1009.2 - 0.0 - - - - - - -
25/04:00pm 29.1 ENE 9 13 1009.0 - 0.0 - - - - - - -
25/03:30pm 29.7 E 9 12 1009.0 - 0.0 - - - - - - -
25/03:00pm 29.5 E 8 13 1009.1 - 0.0 - - - - - - -
25/02:30pm 29.6 E 8 13 1009.4 - 0.0 - - - - - - -
25/02:00pm 29.6 NNE 9 14 1009.7 - 0.0 - - - - - - -
25/01:30pm 30.2 NNE 9 14 1010.0 - 0.0 - - - - - - -
25/01:00pm 30.2 NNE 10 15 1010.5 - 0.0 - - - - - - -
25/12:30pm 30.1 NNE 10 13 1011.0 - 0.0 - - - - - - -
25/12:00pm 29.5 NE 7 11 1011.4 - 0.0 - - - - - - -
25/11:30am 29.9 NNE 9 11 1011.9 - 0.0 - - - - - - -
25/11:00am 30.4 NE 7 13 1012.2 - 0.0 - - - - - - -
25/10:30am 30.4 NNE 6 10 1012.4 - 0.0 - - - - - - -
25/10:00am 28.0 NNE 8 9 1012.6 - 0.0 - - - - - - -
25/09:30am 27.9 NE 6 8 1012.6 - 0.0 - - - - - - -
25/09:00am 28.3 E 5 7 1012.6 - 0.0 - - - - - - -
25/08:30am 27.7 ESE 4 8 1012.4 - 0.0 - - - - - - -
25/08:00am 25.4 CALM 0 4 1012.3 - 0.0 - - - - - - -
25/07:30am 23.7 S 2 3 1012.0 - 0.0 - - - - - - -
25/07:00am 22.7 E 2 4 1011.6 - 0.0 - - - - - - -
25/06:30am 22.0 ENE 4 5 1011.2 - 0.0 - - - - - - -
25/06:00am 22.0 ENE 4 4 1010.6 - 0.0 - - - - - - -
25/05:30am 21.4 E 5 6 1010.3 - 0.0 - - - - - - -
25/05:00am 22.4 ENE 5 6 1009.9 - 0.0 - - - - - - -
25/04:30am 22.1 ENE 5 6 1009.6 - 0.0 - - - - - - -
25/04:00am 22.1 E 5 6 1009.3 - 0.0 - - - - - - -
25/03:30am 22.3 E 5 6 1009.4 - 0.0 - - - - - - -
25/03:00am 22.6 E 5 6 1009.5 - 0.0 - - - - - - -
25/02:30am 23.2 ENE 4 5 1009.6 - 0.0 - - - - - - -
25/02:00am 23.6 ENE 5 6 1009.7 - 0.0 - - - - - - -
25/01:30am 23.3 E 4 4 1010.0 - 0.0 - - - - - - -
25/01:00am 23.1 ESE 4 5 1010.2 - 0.0 - - - - - - -
25/12:30am 23.4 E 5 6 1010.6 - 0.0 - - - - - - -
25/12:00am 23.6 ESE 3 4 1010.7 - 0.0 - - - - - - -
 
Date/Time
EST
Temp
°C
Wind Pressure Rain since
9am
mm
Weather Cloud Vis
km
Sea
Height
m
Swell
Dir  Spd
kts
Gust
kts
hPa Trend Height
m
Period
s
Dir
24/11:30pm 23.7 E 5 5 1010.8 - 0.0 - - - - - - -
24/11:00pm 23.6 E 5 6 1011.1 - 0.0 - - - - - - -
24/10:30pm 23.5 E 5 6 1011.1 - 0.0 - - - - - - -
24/10:00pm 23.3 E 5 6 1011.1 - 0.0 - - - - - - -
24/09:30pm 23.3 E 5 6 1011.0 - 0.0 - - - - - - -
24/09:00pm 23.7 E 5 6 1011.0 - 0.0 - - - - - - -
24/08:30pm 24.1 ENE 4 5 1010.9 - 0.0 - - - - - - -
24/08:00pm 24.2 E 6 7 1010.6 - 0.0 - - - - - - -
24/07:30pm 24.4 E 5 6 1010.4 - 0.0 - - - - - - -
24/07:00pm 24.6 E 5 6 1010.1 - 0.0 - - - - - - -
24/06:30pm 25.4 E 5 6 1009.8 - 0.0 - - - - - - -
24/06:00pm 26.4 E 7 9 1009.5 - 0.0 - - - - - - -
24/05:30pm 27.1 ESE 7 11 1009.4 - 0.0 - - - - - - -
24/05:00pm 27.7 ESE 7 9 1009.3 - 0.0 - - - - - - -
24/04:30pm 28.2 ESE 9 11 1009.3 - 0.0 - - - - - - -
24/04:00pm 28.3 SE 8 12 1009.2 - 0.0 - - - - - - -
24/03:30pm 29.1 SE 10 13 1009.2 - 0.0 - - - - - - -
24/03:00pm 28.8 SE 9 14 1009.5 - 0.0 - - - - - - -
24/02:30pm 29.6 SE 9 15 1009.9 - 0.0 - - - - - - -
24/02:00pm 29.5 SE 11 16 1010.2 - 0.0 - - - - - - -
24/01:30pm 29.4 ESE 9 15 1010.5 - 0.0 - - - - - - -
24/01:00pm 28.3 SE 10 13 1010.9 - 0.0 - - - - - - -
24/12:30pm 28.5 SE 9 14 1011.3 - 0.0 - - - - - - -
24/12:00pm 28.1 ESE 9 14 1011.7 - 0.0 - - - - - - -
24/11:30am 28.4 ESE 10 15 1012.1 - 0.0 - - - - - - -
24/11:00am 29.8 ESE 10 13 1012.3 - 0.0 - - - - - - -
24/10:30am 30.0 E 8 13 1012.6 - 0.0 - - - - - - -
24/10:00am 29.3 E 8 11 1013.0 - 0.0 - - - - - - -
24/09:30am 28.7 E 10 14 1012.9 - 0.0 - - - - - - -
24/09:00am 28.4 E 10 14 1013.0 - 0.0 - - - - - - -
24/08:30am 27.2 ESE 8 11 1012.8 - 0.0 - - - - - - -
24/08:00am 27.2 ESE 8 12 1012.4 - 0.0 - - - - - - -
24/07:30am 24.4 E 4 5 1012.1 - 0.0 - - - - - - -
24/07:00am 23.5 E 5 5 1011.7 - 0.0 - - - - - - -
24/06:30am 23.0 E 5 6 1011.2 - 0.0 - - - - - - -
24/06:00am 22.8 E 5 6 1010.8 - 0.0 - - - - - - -
24/05:30am 22.8 ESE 5 6 1010.5 - 0.0 - - - - - - -
24/05:00am 23.0 ESE 5 6 1010.2 - 0.0 - - - - - - -
24/04:30am 22.8 ESE 5 6 1009.9 - 0.0 - - - - - - -
24/04:00am 22.7 E 5 6 1009.7 - 0.0 - - - - - - -
24/03:30am 22.7 E 5 6 1009.9 - 0.0 - - - - - - -
24/03:00am 22.8 ESE 6 6 1010.1 - 0.0 - - - - - - -
24/02:30am 23.1 E 4 5 1010.3 - 0.0 - - - - - - -
24/02:00am 23.2 E 5 6 1010.3 - 0.0 - - - - - - -
24/01:30am 23.6 E 5 5 1010.6 - 0.0 - - - - - - -
24/01:00am 23.7 ESE 6 7 1010.8 - 0.0 - - - - - - -
24/12:30am 23.9 ESE 5 6 1011.0 - 0.0 - - - - - - -
24/12:00am 24.3 ESE 6 8 1011.0 - 0.0 - - - - - - -
 
Date/Time
EST
Temp
°C
Wind Pressure Rain since
9am
mm
Weather Cloud Vis
km
Sea
Height
m
Swell
Dir  Spd
kts
Gust
kts
hPa Trend Height
m
Period
s
Dir
23/11:30pm 24.5 ESE 7 8 1011.3 - 0.0 - - - - - - -
23/11:00pm 24.7 ESE 7 9 1011.4 - 0.0 - - - - - - -
23/10:30pm 25.0 ESE 7 12 1011.6 - 0.0 - - - - - - -
23/10:00pm 24.9 ESE 8 11 1011.6 - 0.0 - - - - - - -
23/09:30pm 25.0 ESE 7 10 1011.6 - 0.0 - - - - - - -
23/09:00pm 25.0 ESE 6 10 1011.3 - 0.0 - - - - - - -
23/08:30pm 24.9 ESE 7 10 1011.0 - 0.0 - - - - - - -
23/08:00pm 25.0 ESE 6 8 1011.0 - 0.0 - - - - - - -
23/07:30pm 24.7 ESE 5 7 1010.7 - 0.0 - - - - - - -
23/07:00pm 24.8 E 6 8 1010.3 - 0.0 - - - - - - -
23/06:30pm 25.2 ESE 5 8 1010.1 - 0.0 - - - - - - -
23/06:00pm 25.9 E 8 11 1009.8 - 0.0 - - - - - - -
23/05:30pm 26.7 E 8 10 1009.6 - 0.0 - - - - - - -

Other Formats:

Comma delimited format used in spreadsheet applications
http://www.bom.gov.au/fwo/IDQ60701/IDQ60701.94188.axf

JavaScript Object Notation format (JSON) in row-major order
http://www.bom.gov.au/fwo/IDQ60701/IDQ60701.94188.json